Julian, WV (25529)

6:57 AM EDT on September 16, 2014 (GMT -0400)
SOD | Change Station
CLOSE
Current Station
Personal Weather Station
Location: Sod, WV
Elevation: 771 ft
Nearby Weather Stations

Elev 771 ft 38.27 °N, 81.89 °W | Updated 2 seconds ago

Overcast
Overcast
59.9 °F
Feels Like 59.9 °F
N
0.0
Wind Variable Wind from North
Gusts 0.0 mph

Today
High -- | Low -- °F
--% Chance of Precip.
Yesterday
High -- | Low -- °F
Precip. -- in
7:10 AM 7:33 PM
Waning Gibbous, 46% visible
Pressure 30.08 in
Visibility 6.0 miles
Clouds Mostly Cloudy 1500 ft
Overcast 3400 ft
Dew Point 59 °F
Humidity 96%
Rainfall 0.00 in
Snow Depth Not available.
UV 0 out of 12
Pollen 4.50 out of 12
Air Quality Not available.
Flu Activity Not available.
METAR KCRW 160954Z 00000KT 6SM -RA BR BKN015 OVC034 16/14 A3009 RMK AO2 RAB18 SLP185 P0000 T01560144

More Conditions Fewer Conditions

Pressure 30.08 in
Visibility 6.0 miles
Clouds Mostly Cloudy 1500 ft
Overcast 3400 ft
Dew Point 59 °F
Humidity 96%
Rainfall 0.00 in
Snow Depth Not available.
UV 0 out of 12
Pollen 4.50 out of 12
Air Quality Not available.
Flu Activity Not available.
METAR KCRW 160954Z 00000KT 6SM -RA BR BKN015 OVC034 16/14 A3009 RMK AO2 RAB18 SLP185 P0000 T01560144

More Conditions Fewer Conditions

10-Day Weather Forecast

Almanac

Astronomy

Sep. 16, 2014 Rise Set
Actual Time 7:10 AM EDT 7:33 PM EDT
Civil Twilight 6:43 AM EDT 8:00 PM EDT
Nautical Twilight 6:12 AM EDT 8:31 PM EDT
Astronomical Twilight 5:40 AM EDT 9:02 PM EDT
Moon 12:22 AM EDT 2:52 PM EDT
Length of Visible Light 13h 16m
Length of Day
12h 23m
Tomorrow will be 2m 26s shorter.
Waning Gibbous, 46% of the Moon is Illuminated
Today
Waning Gibbous
Sep 24
New
Oct 1
First Quarter
Oct 8
Full
Oct 15
Last Quarter

Today's Extremes

State Highs State Lows

Community

WunderPhotos

Upload Photos

1,753,720 photos uploaded!

WunderBlogs® & News

Nearby

Snow Depth

Station Depth Elevation
No new snow has been reported.

Earthquake Activity

City Distance Mag. Time & Date
No recent earthquake activity has been reported nearby.
Minimum magnitude displayed is 2.5.

Coastal Water Temperatures

Place Temperature
No Stations Reporting

Nearby Weather Stations